North Albemarle, North Carolina
Current Conditions -  °F | °C
As of 7:35 AM on Monday 22 Dec 2014 (Local Time) from KVUJ Reporting Station
Overcast Overcast  
Wind Chill: 31°   Ceiling: 700
Heat Index: 38°   Visibility: 10mi
Dew Point: 38°   Wind: 9mph
Humidity: 100%   Direction: 20°NNE
Pressure: 30.18"   Gusts: NA
Location:  35.3503°N, 80.2174°W
Report Text: KVUJ 221235Z AUTO 02008KT 10SM OVC007 03/03 A3018 RMK AO2 T00310031
Loading
Personal Weather Stations






























Interactive Weather Map New forecast layout! Learn more

10-Day Weather Forecast

Advertisements
Track Severe Weather on mobile